createdAt,value
2018-11-05T00:00:59.131Z,89.11
2018-11-05T00:03:29.798Z,89.54
2018-11-05T00:06:00.431Z,89.70
2018-11-05T00:08:31.070Z,89.22
2018-11-05T00:11:01.750Z,89.69
2018-11-05T00:13:32.412Z,89.13
2018-11-05T00:16:03.035Z,89.37
2018-11-05T00:18:33.712Z,89.57
2018-11-05T00:21:04.354Z,89.46
2018-11-05T00:23:34.975Z,89.54
2018-11-05T00:26:06.261Z,89.24
2018-11-05T00:28:36.888Z,89.01
2018-11-05T00:31:07.513Z,89.06
2018-11-05T00:33:38.220Z,89.25
2018-11-05T00:36:08.908Z,89.59
2018-11-05T00:38:39.580Z,89.94
2018-11-05T00:41:10.272Z,89.59
2018-11-05T00:43:40.920Z,89.77
2018-11-05T00:46:11.522Z,89.92
2018-11-05T00:48:42.183Z,90.75
2018-11-05T00:51:12.852Z,91.31
2018-11-05T00:53:43.525Z,90.54
2018-11-05T00:56:14.126Z,90.46
2018-11-05T00:58:44.787Z,90.48
2018-11-05T01:01:15.438Z,90.84
2018-11-05T01:03:46.101Z,90.65
2018-11-05T01:06:16.781Z,91.25
2018-11-05T01:08:47.396Z,91.34
2018-11-05T01:11:18.087Z,90.91
2018-11-05T01:13:48.747Z,89.80
2018-11-05T01:16:19.428Z,89.74
2018-11-05T01:18:50.066Z,90.56
2018-11-05T01:21:20.688Z,90.69
2018-11-05T01:23:51.342Z,92.02
2018-11-05T01:26:21.938Z,91.65
2018-11-05T01:28:52.620Z,92.60
2018-11-05T01:31:23.266Z,93.00
2018-11-05T01:33:53.882Z,93.46
2018-11-05T01:36:24.561Z,92.99
2018-11-05T01:38:55.198Z,91.66
2018-11-05T01:41:25.872Z,91.80
2018-11-05T01:43:56.522Z,92.77
2018-11-05T01:46:27.181Z,92.71
2018-11-05T01:48:57.844Z,93.45
2018-11-05T01:51:28.498Z,93.26
2018-11-05T01:53:59.111Z,93.31
2018-11-05T01:56:29.802Z,93.61
2018-11-05T01:59:00.458Z,93.07
2018-11-05T02:01:31.108Z,93.40
2018-11-05T02:04:01.732Z,92.96
2018-11-05T02:06:32.368Z,91.98
2018-11-05T02:09:09.994Z,90.45
2018-11-05T02:11:40.695Z,89.94
2018-11-05T02:14:11.351Z,89.88
2018-11-05T02:16:42.217Z,90.53
2018-11-05T02:19:12.892Z,91.89
2018-11-05T02:21:43.591Z,92.48
2018-11-05T02:24:14.488Z,92.79
2018-11-05T02:26:45.135Z,93.28
2018-11-05T02:29:15.739Z,93.17
2018-11-05T02:31:46.436Z,92.57
2018-11-05T02:34:17.144Z,91.80
2018-11-05T02:36:47.754Z,91.53
2018-11-05T02:39:18.430Z,91.21
2018-11-05T02:41:49.127Z,91.18
2018-11-05T02:44:19.755Z,91.47
2018-11-05T02:46:50.446Z,89.68
2018-11-05T02:49:21.096Z,89.78
2018-11-05T02:51:51.746Z,89.72
2018-11-05T02:54:22.394Z,89.81
2018-11-05T02:56:53.059Z,90.25
2018-11-05T02:59:23.694Z,89.92
2018-11-05T03:01:54.302Z,90.50
2018-11-05T03:04:25.201Z,91.15
2018-11-05T03:06:55.795Z,91.38
2018-11-05T03:09:26.427Z,92.03
2018-11-05T03:11:57.077Z,92.12
2018-11-05T03:14:27.685Z,92.47
2018-11-05T03:16:58.273Z,92.62
2018-11-05T03:19:28.857Z,92.41
2018-11-05T03:21:59.492Z,92.36
2018-11-05T03:24:30.218Z,91.68
2018-11-05T03:27:00.831Z,91.33
2018-11-05T03:29:31.468Z,90.32
2018-11-05T03:32:02.080Z,88.41
2018-11-05T03:34:32.742Z,88.32
2018-11-05T03:37:03.381Z,88.86
2018-11-05T03:39:34.088Z,89.86
2018-11-05T03:42:04.821Z,88.93
2018-11-05T03:44:35.474Z,88.94
2018-11-05T03:47:06.783Z,88.78
2018-11-05T03:49:37.444Z,88.99
2018-11-05T03:52:08.133Z,89.75
2018-11-05T03:54:38.869Z,89.43
2018-11-05T03:57:09.559Z,89.54
2018-11-05T03:59:40.190Z,88.45
2018-11-05T04:02:10.812Z,87.89
2018-11-05T04:04:41.433Z,87.19
2018-11-05T04:07:12.249Z,87.62
2018-11-05T04:09:42.908Z,89.01
2018-11-05T04:12:13.586Z,89.85
2018-11-05T04:14:44.268Z,90.04
2018-11-05T04:17:14.889Z,90.55
2018-11-05T04:19:45.574Z,91.15
2018-11-05T04:22:16.243Z,91.25
2018-11-05T04:24:46.840Z,91.21
2018-11-05T04:27:17.483Z,90.53
2018-11-05T04:29:48.211Z,90.75
2018-11-05T04:32:18.816Z,88.80
2018-11-05T04:34:49.547Z,88.92
2018-11-05T04:37:20.163Z,89.96
2018-11-05T04:39:50.819Z,90.20
2018-11-05T04:42:21.499Z,90.49
2018-11-05T04:44:52.177Z,90.54
2018-11-05T04:47:22.791Z,90.19
2018-11-05T04:49:53.412Z,90.14
2018-11-05T04:52:24.105Z,89.62
2018-11-05T04:54:54.796Z,90.02
2018-11-05T04:57:25.462Z,88.95
2018-11-05T04:59:56.104Z,88.67
2018-11-05T05:02:26.735Z,88.97
2018-11-05T05:04:57.380Z,89.94
2018-11-05T05:07:28.040Z,90.51
2018-11-05T05:09:58.756Z,90.40
2018-11-05T05:12:29.365Z,90.79
2018-11-05T05:15:00.021Z,90.99
2018-11-05T05:17:30.687Z,91.47
2018-11-05T05:20:01.388Z,91.24
2018-11-05T05:22:32.122Z,91.05
2018-11-05T05:25:02.741Z,91.36
2018-11-05T05:27:33.366Z,90.96
2018-11-05T05:30:04.160Z,90.37
2018-11-05T05:32:34.797Z,89.86
2018-11-05T05:35:05.802Z,89.57
2018-11-05T05:37:36.439Z,89.63
2018-11-05T05:40:08.264Z,89.80
2018-11-05T05:42:39.870Z,89.52
2018-11-05T05:45:11.737Z,88.52
2018-11-05T05:47:43.121Z,88.49
2018-11-05T05:50:16.814Z,88.97
2018-11-05T05:52:48.881Z,88.79
2018-11-05T05:55:19.560Z,89.36
2018-11-05T05:57:50.229Z,89.23
2018-11-05T06:00:20.883Z,88.95
2018-11-05T06:02:51.534Z,88.57
2018-11-05T06:05:22.134Z,88.41
2018-11-05T06:07:52.818Z,88.35
2018-11-05T06:10:23.495Z,88.55
2018-11-05T06:12:54.078Z,88.62
2018-11-05T06:15:24.723Z,88.18
2018-11-05T06:17:55.360Z,87.83
2018-11-05T06:20:25.971Z,87.84
2018-11-05T06:22:56.618Z,87.20
2018-11-05T06:25:27.284Z,87.90
2018-11-05T06:27:57.954Z,87.69
2018-11-05T06:30:28.605Z,88.22
2018-11-05T06:32:59.267Z,87.51
2018-11-05T06:35:30.076Z,87.37
2018-11-05T06:38:00.619Z,88.13
2018-11-05T06:40:31.270Z,88.95
2018-11-05T06:43:01.940Z,89.96
2018-11-05T06:45:32.609Z,90.41
2018-11-05T06:48:03.225Z,91.40
2018-11-05T06:50:33.847Z,91.22
2018-11-05T06:53:04.491Z,90.93
2018-11-05T06:55:35.222Z,90.41
2018-11-05T06:58:05.938Z,90.77
2018-11-05T07:00:36.601Z,89.60
2018-11-05T07:03:07.355Z,89.15
2018-11-05T07:05:38.092Z,88.83
2018-11-05T07:08:08.710Z,88.90
2018-11-05T07:10:39.339Z,88.69
2018-11-05T07:13:09.960Z,88.49
2018-11-05T07:15:40.687Z,87.82
2018-11-05T07:18:11.343Z,86.96
2018-11-05T07:20:41.982Z,86.15
2018-11-05T07:23:12.570Z,84.66
2018-11-05T07:25:43.195Z,82.99
2018-11-05T07:28:13.875Z,81.17
2018-11-05T07:30:44.560Z,79.16
2018-11-05T07:33:15.261Z,74.51
2018-11-05T07:35:45.936Z,69.66
2018-11-05T07:38:16.599Z,64.42
2018-11-05T07:40:47.255Z,60.09
2018-11-05T07:43:17.976Z,56.62
2018-11-05T07:45:48.682Z,53.98
2018-11-05T07:48:19.352Z,51.57
2018-11-05T07:50:50.064Z,49.09
2018-11-05T07:53:20.858Z,47.52
2018-11-05T07:55:51.544Z,46.83
2018-11-05T07:58:22.199Z,45.87
2018-11-05T08:00:57.759Z,45.35
2018-11-05T08:03:28.761Z,49.09
2018-11-05T08:05:59.491Z,55.23
2018-11-05T08:08:30.229Z,60.05
2018-11-05T08:11:00.894Z,64.76
2018-11-05T08:13:31.595Z,67.04
2018-11-05T08:16:02.342Z,66.62
2018-11-05T08:18:33.006Z,66.64
2018-11-05T08:21:03.664Z,65.40
2018-11-05T08:23:34.306Z,64.49
2018-11-05T08:26:05.324Z,64.78
2018-11-05T08:28:35.950Z,65.82
2018-11-05T08:31:07.432Z,65.32
2018-11-05T08:33:38.095Z,65.65
2018-11-05T08:36:08.712Z,66.70
2018-11-05T08:38:39.403Z,67.97
2018-11-05T08:41:10.101Z,69.41
2018-11-05T08:43:40.771Z,70.13
2018-11-05T08:46:11.469Z,71.33
2018-11-05T08:48:42.092Z,72.33
2018-11-05T08:51:12.913Z,72.22
2018-11-05T08:53:43.412Z,73.49
2018-11-05T08:56:14.079Z,74.79
2018-11-05T08:58:44.715Z,76.15
2018-11-05T09:01:17.841Z,76.78
2018-11-05T09:03:50.351Z,77.42
2018-11-05T09:06:21.035Z,77.80
2018-11-05T09:08:51.682Z,77.17
2018-11-05T09:11:22.639Z,77.78
2018-11-05T09:13:53.000Z,78.12
2018-11-05T09:16:23.685Z,78.07
2018-11-05T09:18:54.338Z,78.09
2018-11-05T09:21:25.019Z,78.12
2018-11-05T09:23:55.705Z,78.16
2018-11-05T09:26:26.362Z,77.73
2018-11-05T09:28:57.000Z,77.63
2018-11-05T09:31:27.668Z,78.04
2018-11-05T09:33:58.343Z,78.60
2018-11-05T09:36:28.964Z,77.12
2018-11-05T09:38:59.628Z,76.45
2018-11-05T09:41:30.295Z,75.92
2018-11-05T09:44:00.928Z,77.00
2018-11-05T09:46:34.565Z,77.71
2018-11-05T09:49:05.768Z,77.89
2018-11-05T09:51:36.417Z,78.99
2018-11-05T09:54:07.383Z,78.85
2018-11-05T09:56:38.039Z,78.25
2018-11-05T09:59:08.706Z,78.70
2018-11-05T10:01:39.443Z,77.80
2018-11-05T10:04:10.204Z,78.11
2018-11-05T10:06:40.781Z,77.98
2018-11-05T10:09:12.659Z,78.26
2018-11-05T10:11:43.273Z,77.82
2018-11-05T10:14:13.969Z,77.44
2018-11-05T10:16:44.629Z,77.71
2018-11-05T10:19:15.300Z,77.57
2018-11-05T10:21:45.959Z,78.04
2018-11-05T10:24:16.711Z,77.22
2018-11-05T10:26:47.400Z,76.51
2018-11-05T10:29:18.142Z,77.04
2018-11-05T10:31:48.806Z,77.81
2018-11-05T10:34:19.495Z,77.70
2018-11-05T10:36:50.195Z,77.82
2018-11-05T10:39:20.820Z,77.60
2018-11-05T10:41:51.511Z,76.69
2018-11-05T10:44:22.158Z,76.83
2018-11-05T10:46:52.809Z,76.36
2018-11-05T10:49:23.527Z,76.35
2018-11-05T10:51:54.234Z,75.72
2018-11-05T10:54:24.828Z,76.03
2018-11-05T10:56:55.597Z,76.64
2018-11-05T10:59:26.212Z,75.88
2018-11-05T11:02:02.081Z,76.01
2018-11-05T11:04:33.450Z,75.83
2018-11-05T11:07:04.674Z,74.90
2018-11-05T11:09:35.396Z,75.31
2018-11-05T11:12:06.487Z,75.02
2018-11-05T11:14:37.182Z,74.31
2018-11-05T11:17:07.898Z,74.07
2018-11-05T11:19:38.490Z,74.21
2018-11-05T11:22:09.257Z,73.39
2018-11-05T11:24:39.858Z,73.53
2018-11-05T11:27:10.555Z,73.11
2018-11-05T11:29:41.198Z,73.03
2018-11-05T11:32:11.852Z,72.32
2018-11-05T11:34:42.523Z,71.75
2018-11-05T11:37:13.219Z,69.79
2018-11-05T11:39:43.825Z,69.73
2018-11-05T11:42:14.461Z,69.29
2018-11-05T11:44:45.085Z,68.27
2018-11-05T11:47:15.668Z,68.64
2018-11-05T11:49:46.305Z,68.22
2018-11-05T11:52:16.961Z,67.91
2018-11-05T11:54:47.845Z,67.56
2018-11-05T11:57:18.523Z,66.35
2018-11-05T11:59:49.269Z,65.63
2018-11-05T12:02:19.931Z,65.12
2018-11-05T12:04:50.676Z,64.44
2018-11-05T12:07:21.181Z,64.72
2018-11-05T12:09:51.910Z,64.30
2018-11-05T12:12:22.557Z,63.53
2018-11-05T12:14:53.424Z,63.08
2018-11-05T12:17:23.979Z,60.28
2018-11-05T12:19:54.641Z,58.68
2018-11-05T12:22:25.328Z,56.63
2018-11-05T12:24:56.106Z,55.42
2018-11-05T12:27:26.650Z,54.93
2018-11-05T12:29:57.334Z,54.57
2018-11-05T12:32:27.973Z,53.50
2018-11-05T12:34:58.626Z,52.40
2018-11-05T12:37:29.286Z,52.32
2018-11-05T12:39:59.900Z,51.84
2018-11-05T12:42:30.556Z,50.56
2018-11-05T12:45:01.214Z,50.30
2018-11-05T12:47:31.947Z,50.84
2018-11-05T12:50:03.257Z,49.61
2018-11-05T12:52:33.943Z,49.16
2018-11-05T12:55:04.702Z,49.12
2018-11-05T12:57:35.334Z,47.45
2018-11-05T13:00:09.263Z,48.08
2018-11-05T13:02:39.879Z,49.20
2018-11-05T13:05:11.956Z,48.87
2018-11-05T13:07:42.683Z,47.08
2018-11-05T13:10:14.204Z,47.21
2018-11-05T13:12:44.955Z,46.76
2018-11-05T13:15:15.701Z,46.58
2018-11-05T13:17:46.324Z,46.05
2018-11-05T13:20:18.191Z,45.58
2018-11-05T13:22:49.277Z,46.32
2018-11-05T13:25:19.993Z,46.20
2018-11-05T13:27:51.553Z,45.93
2018-11-05T13:30:22.225Z,45.81
2018-11-05T13:32:52.888Z,45.20
2018-11-05T13:35:23.505Z,45.42
2018-11-05T13:37:54.731Z,46.12
2018-11-05T13:40:24.906Z,46.81
2018-11-05T13:42:55.548Z,47.61
2018-11-05T13:45:26.399Z,48.31
2018-11-05T13:47:57.266Z,49.24
2018-11-05T13:50:28.051Z,49.92
2018-11-05T13:52:58.297Z,49.36
2018-11-05T13:55:28.980Z,48.93
2018-11-05T13:57:59.639Z,48.91
2018-11-05T14:00:30.336Z,49.10
2018-11-05T14:03:01.039Z,48.10
2018-11-05T14:05:31.749Z,48.28
2018-11-05T14:08:02.540Z,47.51
2018-11-05T14:10:33.178Z,48.66
2018-11-05T14:13:03.865Z,48.74
2018-11-05T14:15:34.590Z,48.92
2018-11-05T14:18:05.328Z,49.18
2018-11-05T14:20:36.014Z,49.84
2018-11-05T14:23:06.908Z,50.15
2018-11-05T14:25:37.636Z,51.48
2018-11-05T14:28:08.713Z,52.45
2018-11-05T14:30:38.976Z,53.83
2018-11-05T14:33:09.689Z,54.41
2018-11-05T14:35:40.368Z,55.27
2018-11-05T14:38:11.127Z,56.12
2018-11-05T14:40:41.742Z,56.21
2018-11-05T14:43:12.465Z,57.11
2018-11-05T14:45:43.065Z,57.87
2018-11-05T14:48:13.752Z,58.31
2018-11-05T14:50:44.541Z,58.54
2018-11-05T14:53:15.116Z,58.93
2018-11-05T14:55:52.260Z,59.41
2018-11-05T14:58:22.990Z,59.97
2018-11-05T15:00:53.575Z,60.71
2018-11-05T15:03:24.209Z,61.22
2018-11-05T15:05:54.951Z,61.47
2018-11-05T15:08:25.633Z,62.44
2018-11-05T15:10:56.321Z,62.63
2018-11-05T15:13:27.001Z,63.28
2018-11-05T15:15:57.650Z,63.76
2018-11-05T15:18:28.569Z,64.14
2018-11-05T15:20:59.145Z,64.89
2018-11-05T15:23:29.758Z,65.82
2018-11-05T15:26:00.508Z,66.17
2018-11-05T15:28:31.116Z,66.60
2018-11-05T15:31:01.795Z,66.98
2018-11-05T15:33:47.176Z,67.84
2018-11-05T15:36:17.849Z,68.60
2018-11-05T15:38:48.483Z,68.96
2018-11-05T15:41:19.142Z,69.98
2018-11-05T15:44:04.752Z,69.50
2018-11-05T15:46:35.472Z,70.06
2018-11-05T15:49:06.204Z,70.16
2018-11-05T15:51:37.049Z,70.49
2018-11-05T15:54:07.759Z,70.99
2018-11-05T15:56:38.417Z,71.19
2018-11-05T15:59:09.646Z,71.45
2018-11-05T16:01:40.417Z,72.16
2018-11-05T16:04:11.335Z,72.61
2018-11-05T16:06:42.112Z,73.04
2018-11-05T16:09:12.896Z,73.14
2018-11-05T16:11:43.788Z,73.28
2018-11-05T16:14:14.600Z,73.73
2018-11-05T16:16:45.344Z,73.52
2018-11-05T16:19:16.180Z,73.83
2018-11-05T16:21:46.967Z,74.29
2018-11-05T16:24:18.010Z,74.27
2018-11-05T16:26:48.951Z,74.69
2018-11-05T16:29:19.598Z,74.57
2018-11-05T16:31:50.567Z,74.63
2018-11-05T16:34:21.312Z,74.80
2018-11-05T16:36:52.170Z,75.47
2018-11-05T16:39:22.981Z,75.63
2018-11-05T16:41:54.116Z,75.97
2018-11-05T16:44:24.847Z,76.50
2018-11-05T16:46:55.492Z,76.05
2018-11-05T16:49:26.124Z,76.31
2018-11-05T16:51:56.871Z,76.12
2018-11-05T16:54:27.533Z,76.66
2018-11-05T16:56:58.207Z,76.78
2018-11-05T16:59:28.827Z,76.49
2018-11-05T17:01:59.915Z,77.14
2018-11-05T17:04:30.205Z,77.36
2018-11-05T17:07:00.892Z,77.64
2018-11-05T17:09:31.513Z,77.53
2018-11-05T17:12:02.248Z,77.67
2018-11-05T17:14:32.996Z,77.90
2018-11-05T17:17:03.715Z,78.05
2018-11-05T17:19:34.522Z,77.89
2018-11-05T17:22:05.296Z,78.33
2018-11-05T17:24:35.934Z,78.34
2018-11-05T17:27:06.907Z,78.46
2018-11-05T17:29:37.601Z,78.93
2018-11-05T17:32:08.288Z,78.95
2018-11-05T17:34:38.960Z,78.91
2018-11-05T17:37:09.639Z,79.06
2018-11-05T17:39:40.363Z,79.07
2018-11-05T17:42:11.246Z,79.14
2018-11-05T17:44:41.944Z,79.25
2018-11-05T17:47:12.601Z,79.23
2018-11-05T17:49:43.273Z,79.26
2018-11-05T17:52:14.049Z,79.11
2018-11-05T17:54:44.729Z,79.37
2018-11-05T17:57:15.459Z,79.25
2018-11-05T17:59:46.129Z,79.66
2018-11-05T18:02:22.481Z,79.56
2018-11-05T18:04:54.953Z,79.87
2018-11-05T18:07:26.175Z,79.81
2018-11-05T18:09:56.936Z,80.15
2018-11-05T18:12:27.686Z,80.63
2018-11-05T18:14:58.345Z,80.68
2018-11-05T18:17:29.109Z,80.40
2018-11-05T18:19:59.779Z,80.66
2018-11-05T18:22:30.503Z,80.82
2018-11-05T18:25:01.207Z,80.93
2018-11-05T18:27:31.812Z,80.61
2018-11-05T18:30:02.502Z,80.92
2018-11-05T18:32:33.220Z,81.27
2018-11-05T18:35:03.945Z,82.08
2018-11-05T18:37:34.658Z,82.25
2018-11-05T18:40:08.058Z,82.36
2018-11-05T18:42:39.189Z,82.25
2018-11-05T18:45:13.360Z,82.36
2018-11-05T18:47:44.312Z,82.46
2018-11-05T18:50:16.013Z,82.08
2018-11-05T18:52:46.650Z,82.01
2018-11-05T18:55:18.148Z,82.01
2018-11-05T18:57:50.041Z,82.33
2018-11-05T19:00:26.955Z,82.12
2018-11-05T19:02:58.532Z,82.47
2018-11-05T19:05:30.752Z,82.37
2018-11-05T19:08:01.460Z,82.94
2018-11-05T19:10:32.073Z,83.31
2018-11-05T19:13:02.749Z,83.58
2018-11-05T19:15:33.348Z,83.44
2018-11-05T19:18:04.065Z,83.63
2018-11-05T19:20:34.746Z,84.26
2018-11-05T19:23:05.571Z,84.31
2018-11-05T19:25:36.280Z,84.35
2018-11-05T19:28:07.252Z,84.18
2018-11-05T19:30:38.462Z,83.95
2018-11-05T19:33:09.272Z,83.70
2018-11-05T19:35:39.960Z,83.91
2018-11-05T19:38:10.630Z,83.46
2018-11-05T19:40:41.332Z,83.43
2018-11-05T19:43:12.101Z,83.55
2018-11-05T19:45:42.821Z,83.87
2018-11-05T19:48:13.516Z,84.11
2018-11-05T19:50:44.313Z,84.02
2018-11-05T19:53:15.046Z,84.17
2018-11-05T19:55:45.809Z,84.05
2018-11-05T19:58:16.525Z,83.64
2018-11-05T20:00:47.383Z,83.08
2018-11-05T20:03:18.016Z,83.78
2018-11-05T20:05:48.792Z,83.72
2018-11-05T20:08:19.495Z,83.54
2018-11-05T20:10:50.226Z,83.83
2018-11-05T20:13:20.975Z,84.19
2018-11-05T20:15:51.675Z,84.72
2018-11-05T20:18:22.395Z,85.07
2018-11-05T20:20:53.056Z,84.67
2018-11-05T20:23:23.699Z,84.93
2018-11-05T20:25:54.397Z,84.30
2018-11-05T20:28:25.108Z,84.69
2018-11-05T20:30:55.814Z,84.03
2018-11-05T20:33:26.605Z,83.76
2018-11-05T20:35:57.235Z,84.23
2018-11-05T20:38:28.010Z,84.03
2018-11-05T20:40:58.725Z,83.08
2018-11-05T20:43:29.370Z,83.06
2018-11-05T20:46:00.179Z,82.40
2018-11-05T20:48:30.836Z,82.39
2018-11-05T20:51:01.527Z,82.64
2018-11-05T20:53:32.229Z,81.69
2018-11-05T20:56:03.033Z,81.18
2018-11-05T20:58:33.743Z,81.23
2018-11-05T21:01:04.499Z,81.55
2018-11-05T21:03:35.285Z,81.45
2018-11-05T21:06:06.152Z,81.29
2018-11-05T21:08:38.195Z,81.51
2018-11-05T21:11:08.923Z,81.24
2018-11-05T21:13:39.702Z,81.21
2018-11-05T21:16:10.655Z,80.97
2018-11-05T21:18:41.396Z,80.86
2018-11-05T21:21:12.162Z,80.58
2018-11-05T21:23:42.851Z,80.70
2018-11-05T21:26:13.495Z,80.68
2018-11-05T21:28:44.257Z,80.38
2018-11-05T21:31:14.971Z,80.25
2018-11-05T21:33:45.606Z,80.87
2018-11-05T21:36:16.298Z,80.94
2018-11-05T21:38:46.963Z,81.26
2018-11-05T21:41:17.689Z,81.35
2018-11-05T21:43:48.330Z,81.01
2018-11-05T21:46:19.128Z,81.64
2018-11-05T21:48:49.770Z,81.42
2018-11-05T21:51:20.397Z,81.70
2018-11-05T21:53:51.080Z,81.81
2018-11-05T21:56:21.705Z,81.61
2018-11-05T21:58:52.458Z,81.90
2018-11-05T22:01:24.265Z,81.82
2018-11-05T22:03:55.519Z,82.23
2018-11-05T22:06:26.575Z,82.68
2018-11-05T22:08:57.208Z,82.44
2018-11-05T22:11:28.238Z,82.93
2018-11-05T22:13:59.030Z,83.49
2018-11-05T22:16:29.729Z,83.70
2018-11-05T22:19:00.412Z,83.71
2018-11-05T22:21:31.050Z,83.85
2018-11-05T22:24:01.720Z,83.89
2018-11-05T22:26:32.336Z,83.65
2018-11-05T22:29:03.033Z,83.51
2018-11-05T22:31:33.711Z,84.81
2018-11-05T22:34:04.440Z,85.26
2018-11-05T22:36:35.067Z,84.99
2018-11-05T22:39:07.920Z,84.91
2018-11-05T22:41:38.791Z,84.74
2018-11-05T22:44:09.666Z,84.66
2018-11-05T22:46:40.335Z,84.78
2018-11-05T22:49:10.965Z,84.77
2018-11-05T22:51:41.611Z,84.54
2018-11-05T22:54:12.338Z,84.94
2018-11-05T22:56:42.981Z,84.78
2018-11-05T22:59:13.655Z,84.72
2018-11-05T23:01:49.596Z,84.82
2018-11-05T23:04:20.304Z,84.86
2018-11-05T23:06:51.880Z,85.06
2018-11-05T23:09:23.061Z,84.86
2018-11-05T23:11:53.757Z,85.27
2018-11-05T23:14:24.410Z,85.39
2018-11-05T23:16:55.119Z,85.47
2018-11-05T23:19:25.793Z,85.67
2018-11-05T23:21:56.491Z,85.14
2018-11-05T23:24:27.135Z,84.90
2018-11-05T23:26:57.837Z,85.27
2018-11-05T23:29:28.449Z,85.48
2018-11-05T23:31:59.143Z,85.58
2018-11-05T23:34:29.784Z,85.71
2018-11-05T23:37:00.407Z,85.73
2018-11-05T23:39:31.062Z,85.76
2018-11-05T23:42:01.831Z,85.82
2018-11-05T23:44:32.492Z,85.61
2018-11-05T23:47:03.219Z,85.86
2018-11-05T23:49:33.956Z,85.91
2018-11-05T23:52:04.740Z,85.82
2018-11-05T23:54:35.403Z,85.61
2018-11-05T23:57:06.257Z,85.71
2018-11-05T23:59:36.913Z,85.69
